Time;durP1;ratioP1;P1;durP2;ratioP2;P2;SDS_P1;SDS_P2;PMS_P1;PMS_P2;Temp;Humidity;BMP_temperature;BMP_pressure;BME280_temperature;BME280_humidity;BME280_pressure;Samples;Min_cycle;Max_cycle;Signal;HPM_P1;HPM_P2
2022/06/18 00:00:27;;;;;;;2.10;1.13;;;;;;;23.36;nan;95364.78;4950872;28;20244;-70
2022/06/18 00:02:54;;;;;;;1.47;0.83;;;;;;;23.68;nan;95355.28;4912081;28;1133762;-73
2022/06/18 00:05:22;;;;;;;1.83;1.40;;;;;;;23.75;nan;95355.53;4952025;29;20211;-72
2022/06/18 00:07:52;;;;;;;1.40;1.30;;;;;;;23.52;nan;95347.03;4958125;28;20207;-72
2022/06/18 00:10:23;;;;;;;1.00;0.90;;;;;;;23.87;nan;95360.94;4958986;28;20226;-73
2022/06/18 00:15:38;;;;;;;1.37;1.27;;;;;;;23.92;nan;95348.13;4951060;28;20658;-74
2022/06/18 00:18:13;;;;;;;1.77;1.37;;;;;;;23.58;nan;95352.97;4952006;28;20200;-70
2022/06/18 00:20:41;;;;;;;1.07;0.77;;;;;;;23.47;nan;95351.78;4965356;28;20207;-70
2022/06/18 00:23:14;;;;;;;0.77;0.77;;;;;;;23.76;nan;95343.72;4938778;29;20203;-73
2022/06/18 00:25:47;;;;;;;1.27;1.10;;;;;;;23.77;nan;95350.66;4951973;28;20200;-72
2022/06/18 00:28:20;;;;;;;1.37;1.30;;;;;;;23.96;nan;95346.38;4957641;28;20197;-69
2022/06/18 00:30:50;;;;;;;1.43;1.33;;;;;;;23.94;nan;95342.47;4956574;28;20644;-72
2022/06/18 00:33:18;;;;;;;1.07;1.07;;;;;;;23.39;nan;95321.34;4951355;28;20254;-72
2022/06/18 00:35:47;;;;;;;1.40;1.30;;;;;;;23.07;nan;95336.13;4963457;28;20809;-73
2022/06/18 00:38:22;;;;;;;0.97;0.97;;;;;;;23.45;nan;95332.66;4964737;28;20589;-72
2022/06/18 00:40:52;;;;;;;1.60;1.10;;;;;;;23.26;nan;95326.91;4978387;28;20337;-71
2022/06/18 00:43:47;;;;;;;0.57;0.53;;;;;;;23.43;nan;95338.28;4970972;28;20199;-71
2022/06/18 00:46:24;;;;;;;1.67;1.57;;;;;;;23.75;nan;95334.94;4965907;28;20206;-72
2022/06/18 00:49:23;;;;;;;1.40;1.10;;;;;;;23.43;nan;95321.47;4955590;28;20686;-74
2022/06/18 00:52:01;;;;;;;0.63;0.63;;;;;;;22.72;nan;95329.38;4951925;28;20227;-72
2022/06/18 00:54:53;;;;;;;1.47;1.20;;;;;;;22.74;nan;95339.75;4968871;28;20190;-72
2022/06/18 00:57:28;;;;;;;0.70;0.70;;;;;;;23.29;nan;95336.94;4963235;28;20207;-71
2022/06/18 01:00:03;;;;;;;1.13;1.07;;;;;;;23.13;nan;95339.41;4969418;28;20198;-71
2022/06/18 01:02:35;;;;;;;1.17;1.07;;;;;;;23.66;nan;95344.13;4956611;28;20195;-71
2022/06/18 01:05:21;;;;;;;0.50;0.50;;;;;;;23.13;nan;95329.50;4969055;28;20647;-70
2022/06/18 01:07:54;;;;;;;1.40;0.97;;;;;;;23.41;nan;95335.16;4956250;28;20933;-70
2022/06/18 01:10:28;;;;;;;0.67;0.67;;;;;;;23.38;nan;95329.69;4969378;28;20206;-72
2022/06/18 01:12:56;;;;;;;0.50;0.50;;;;;;;23.28;nan;95320.13;4944377;28;20191;-70
2022/06/18 01:15:26;;;;;;;0.60;0.60;;;;;;;23.27;nan;95333.81;4969070;28;20647;-73
2022/06/18 01:17:54;;;;;;;0.77;0.77;;;;;;;23.29;nan;95327.06;4955246;28;20210;-71
2022/06/18 01:20:24;;;;;;;0.97;0.97;;;;;;;23.60;nan;95337.38;4958437;28;20199;-73
2022/06/18 01:23:13;;;;;;;1.00;1.00;;;;;;;23.41;nan;95334.41;4950806;28;20290;-71
2022/06/18 01:25:40;;;;;;;1.13;0.90;;;;;;;23.23;nan;95327.56;4951312;28;20310;-70
2022/06/18 01:28:14;;;;;;;0.90;0.90;;;;;;;22.82;nan;95339.72;4971781;28;20257;-72
2022/06/18 01:30:41;;;;;;;0.97;0.87;;;;;;;23.10;nan;95340.81;4963010;28;20199;-71
2022/06/18 01:33:14;;;;;;;1.43;0.90;;;;;;;23.43;nan;95329.50;4953275;29;20208;-72
2022/06/18 01:35:48;;;;;;;1.17;0.97;;;;;;;22.99;nan;95336.94;4953747;28;20234;-70
2022/06/18 01:38:20;;;;;;;0.60;0.60;;;;;;;23.33;nan;95338.69;4954249;28;20192;-73
2022/06/18 01:44:39;;;;;;;0.60;0.50;;;;;;;23.07;nan;95336.13;4932905;29;20195;-69
2022/06/18 01:47:12;;;;;;;0.80;0.80;;;;;;;23.20;nan;95328.97;4967099;28;20204;-71
2022/06/18 01:49:57;;;;;;;0.53;0.53;;;;;;;23.29;nan;95331.59;4953267;28;20691;-70
2022/06/18 01:52:29;;;;;;;10.30;1.00;;;;;;;23.19;nan;95337.34;4940826;28;20199;-72
2022/06/18 01:55:08;;;;;;;0.70;0.70;;;;;;;23.11;nan;95331.72;4968897;28;20200;-73
2022/06/18 01:57:39;;;;;;;0.53;0.53;;;;;;;23.22;nan;95331.34;4954877;28;20690;-71
2022/06/18 02:00:14;;;;;;;0.60;0.60;;;;;;;23.32;nan;95336.34;4952632;28;20196;-70
2022/06/18 02:02:45;;;;;;;0.53;0.53;;;;;;;23.16;nan;95317.38;4933430;28;20790;-72
2022/06/18 02:05:15;;;;;;;1.00;0.90;;;;;;;23.29;nan;95331.59;4960940;28;20227;-69
2022/06/18 02:07:45;;;;;;;1.23;0.93;;;;;;;23.17;nan;95322.38;4945564;28;20253;-70
2022/06/18 02:10:27;;;;;;;0.57;0.57;;;;;;;23.31;nan;95334.75;4971842;28;20969;-74
2022/06/18 02:12:58;;;;;;;0.90;0.90;;;;;;;22.83;nan;95327.91;4933218;29;20215;-70
2022/06/18 02:15:33;;;;;;;1.20;1.10;;;;;;;22.79;nan;95318.97;4958916;28;20291;-71
2022/06/18 02:18:05;;;;;;;1.00;1.00;;;;;;;22.90;nan;95320.19;4939887;29;20240;-70
2022/06/18 02:20:38;;;;;;;1.47;1.37;;;;;;;23.07;nan;95320.09;4968413;28;20227;-69
2022/06/18 02:23:06;;;;;;;0.53;0.50;;;;;;;23.46;nan;95312.81;4952161;28;20235;-70
2022/06/18 02:25:33;;;;;;;0.70;0.70;;;;;;;23.59;nan;95328.59;4940496;28;20343;-71
2022/06/18 02:28:18;;;;;;;0.60;0.60;;;;;;;23.65;nan;95323.84;4966576;28;20234;-69
2022/06/18 02:30:45;;;;;;;0.37;0.37;;;;;;;23.41;nan;95329.03;4953518;28;20243;-69
2022/06/18 02:33:18;;;;;;;0.67;0.67;;;;;;;23.58;nan;95334.25;4957647;28;20278;-71
2022/06/18 02:35:44;;;;;;;1.00;0.90;;;;;;;23.31;nan;95338.22;4959415;28;20331;-72
2022/06/18 02:38:18;;;;;;;0.67;0.67;;;;;;;23.55;nan;95329.56;4957922;28;20215;-70
2022/06/18 02:40:45;;;;;;;0.40;0.40;;;;;;;23.55;nan;95334.91;4972537;28;20282;-73
2022/06/18 02:43:13;;;;;;;0.80;0.80;;;;;;;23.38;nan;95335.81;4969200;28;20274;-70
2022/06/18 02:45:42;;;;;;;1.43;0.77;;;;;;;23.25;nan;95336.06;4958263;28;20192;-74
2022/06/18 02:48:10;;;;;;;0.73;0.70;;;;;;;23.48;nan;95326.63;4960986;28;20197;-72
2022/06/18 02:50:41;;;;;;;1.43;1.33;;;;;;;23.72;nan;95322.19;4956730;28;20206;-71
2022/06/18 02:53:12;;;;;;;1.13;0.93;;;;;;;23.39;nan;95325.91;4960616;28;20219;-74
2022/06/18 02:55:44;;;;;;;0.40;0.40;;;;;;;23.54;nan;95322.66;4934501;28;20719;-71
2022/06/18 02:58:12;;;;;;;0.53;0.53;;;;;;;23.00;nan;95317.16;4943122;28;20200;-69
2022/06/18 03:00:44;;;;;;;1.10;1.03;;;;;;;23.10;nan;95330.13;4951347;29;20223;-71
2022/06/18 03:03:13;;;;;;;0.60;0.60;;;;;;;22.86;nan;95329.19;4961427;28;20796;-70
2022/06/18 03:05:41;;;;;;;1.23;0.60;;;;;;;23.06;nan;95329.22;4955354;28;20211;-73
2022/06/18 03:08:08;;;;;;;0.77;0.70;;;;;;;23.47;nan;95333.88;4943165;29;20196;-72
2022/06/18 03:13:24;;;;;;;1.13;0.90;;;;;;;23.30;nan;95338.56;4952641;29;20577;-70
2022/06/18 03:15:53;;;;;;;0.77;0.77;;;;;;;22.78;nan;95324.66;4965433;28;20726;-70
2022/06/18 03:18:24;;;;;;;0.40;0.40;;;;;;;22.92;nan;95322.53;4960983;28;20447;-70
2022/06/18 03:21:10;;;;;;;0.80;0.80;;;;;;;22.88;nan;95333.06;4956728;28;20196;-70
2022/06/18 03:23:37;;;;;;;0.53;0.47;;;;;;;23.31;nan;95329.41;4967469;28;20286;-71
2022/06/18 03:26:04;;;;;;;0.83;0.60;;;;;;;23.27;nan;95323.13;4941849;28;20688;-72
2022/06/18 03:28:31;;;;;;;0.50;0.50;;;;;;;23.42;nan;95320.69;4948278;28;20447;-71
2022/06/18 03:30:59;;;;;;;0.60;0.60;;;;;;;22.65;nan;95334.44;4953109;28;20204;-68
2022/06/18 03:33:26;;;;;;;0.77;0.77;;;;;;;23.32;nan;95336.34;4951510;28;20534;-72
2022/06/18 03:35:54;;;;;;;0.77;0.77;;;;;;;23.27;nan;95339.16;4953619;28;20610;-71
2022/06/18 03:38:24;;;;;;;0.73;0.73;;;;;;;23.47;nan;95343.78;4938584;28;20224;-74
2022/06/18 03:40:52;;;;;;;0.93;0.57;;;;;;;23.57;nan;95356.78;4984161;28;20202;-70
2022/06/18 03:43:21;;;;;;;0.63;0.63;;;;;;;23.42;nan;95352.00;4969985;28;20265;-70
2022/06/18 03:45:55;;;;;;;0.57;0.57;;;;;;;23.32;nan;95350.47;4960445;28;20215;-70
2022/06/18 03:48:45;;;;;;;0.57;0.57;;;;;;;23.01;nan;95347.31;4969520;28;20453;-70
2022/06/18 03:51:15;;;;;;;0.60;0.60;;;;;;;22.57;nan;95353.94;4932556;28;20196;-71
2022/06/18 03:53:43;;;;;;;1.00;1.00;;;;;;;23.13;nan;95339.41;4966592;28;20291;-74
2022/06/18 03:56:12;;;;;;;0.73;0.73;;;;;;;23.16;nan;95354.03;4950435;29;20234;-70
2022/06/18 03:58:43;;;;;;;0.90;0.90;;;;;;;22.87;nan;95347.56;4980202;28;20191;-73
2022/06/18 04:01:15;;;;;;;0.60;0.60;;;;;;;22.97;nan;95346.41;4950899;29;20262;-71
2022/06/18 04:03:44;;;;;;;0.97;0.97;;;;;;;22.80;nan;95352.63;4936905;29;20290;-72
2022/06/18 04:06:19;;;;;;;1.43;1.27;;;;;;;22.73;nan;95347.00;4951100;28;20210;-71
2022/06/18 04:08:46;;;;;;;0.43;0.43;;;;;;;22.85;nan;95328.38;4974600;28;20214;-72
2022/06/18 04:11:19;;;;;;;0.97;0.90;;;;;;;23.36;nan;95342.59;4964547;28;20195;-69
2022/06/18 04:13:46;;;;;;;0.90;0.90;;;;;;;23.21;nan;95356.50;4950375;28;20452;-74
2022/06/18 04:16:32;;;;;;;1.07;0.97;;;;;;;23.03;nan;95361.94;4932365;28;21137;-69
2022/06/18 04:19:07;;;;;;;0.80;0.80;;;;;;;22.97;nan;95352.53;4961629;28;20585;-71
2022/06/18 04:21:34;;;;;;;1.17;1.10;;;;;;;23.23;nan;95354.31;4943528;28;20692;-72
2022/06/18 04:24:01;;;;;;;1.17;0.80;;;;;;;22.46;nan;95310.00;4957035;28;20327;-72
2022/06/18 04:26:28;;;;;;;0.60;0.60;;;;;;;22.92;nan;95359.94;4955557;28;20205;-74
2022/06/18 04:28:57;;;;;;;0.97;0.77;;;;;;;22.72;nan;95361.44;4969765;28;20202;-72
2022/06/18 04:31:24;;;;;;;1.73;0.73;;;;;;;22.66;nan;95370.72;4969656;28;20191;-69
2022/06/18 04:33:53;;;;;;;1.70;1.00;;;;;;;22.88;nan;95359.03;4969393;28;20210;-70
2022/06/18 04:36:37;;;;;;;0.77;0.77;;;;;;;22.72;nan;95353.44;4964717;28;20235;-71
2022/06/18 04:39:30;;;;;;;0.60;0.60;;;;;;;22.29;nan;95358.09;4966072;28;20301;-73
2022/06/18 04:42:26;;;;;;;0.60;0.60;;;;;;;22.95;nan;95357.44;4941632;28;20204;-70
2022/06/18 04:44:55;;;;;;;0.80;0.80;;;;;;;22.28;nan;95361.09;4950264;28;20259;-70
2022/06/18 04:47:28;;;;;;;1.03;0.67;;;;;;;22.33;nan;95364.38;4936759;28;20258;-72
2022/06/18 04:49:59;;;;;;;1.53;1.07;;;;;;;22.63;nan;95358.03;4949863;29;20218;-73
2022/06/18 04:52:26;;;;;;;1.10;1.07;;;;;;;23.27;nan;95328.47;4962686;28;21010;-74
2022/06/18 04:54:58;;;;;;;0.73;0.73;;;;;;;22.64;nan;95343.56;4958364;28;20214;-71
2022/06/18 04:57:27;;;;;;;1.23;0.80;;;;;;;23.30;nan;95351.94;4949845;28;20687;-70
2022/06/18 04:59:54;;;;;;;0.50;0.50;;;;;;;22.92;nan;95333.22;4953150;28;20581;-70
2022/06/18 05:02:23;;;;;;;0.40;0.40;;;;;;;23.54;nan;95355.53;4955073;28;20262;-71
2022/06/18 05:05:14;;;;;;;0.97;0.80;;;;;;;23.12;nan;95370.69;4954732;29;20298;-72
2022/06/18 05:07:58;;;;;;;0.80;0.70;;;;;;;23.18;nan;95368.63;4941518;28;20694;-71
2022/06/18 05:10:25;;;;;;;0.40;0.40;;;;;;;23.48;nan;95361.41;4955260;28;20282;-71
2022/06/18 05:13:06;;;;;;;0.97;0.77;;;;;;;23.75;nan;95361.69;4953649;29;20262;-73
2022/06/18 05:16:02;;;;;;;0.30;0.30;;;;;;;23.76;nan;95357.09;4955166;28;20211;-69
2022/06/18 05:18:32;;;;;;;0.53;0.50;;;;;;;23.38;nan;95361.78;4943956;29;20722;-71
2022/06/18 05:21:01;;;;;;;0.80;0.70;;;;;;;23.36;nan;95367.44;4982807;28;20211;-72
2022/06/18 05:23:28;;;;;;;1.10;0.63;;;;;;;24.09;nan;95365.97;4972958;28;20207;-73
2022/06/18 05:25:58;;;;;;;0.63;0.63;;;;;;;23.94;nan;95374.59;4958795;28;20211;-73
2022/06/18 05:28:26;;;;;;;0.70;0.70;;;;;;;24.22;nan;95370.28;4969626;28;20199;-72
2022/06/18 05:30:53;;;;;;;0.47;0.47;;;;;;;24.44;nan;95367.22;4965738;28;20206;-73
2022/06/18 05:33:21;;;;;;;0.73;0.73;;;;;;;24.40;nan;95374.34;4985281;28;20294;-71
2022/06/18 05:35:51;;;;;;;0.40;0.40;;;;;;;24.29;nan;95370.53;4961201;28;20687;-72
2022/06/18 05:38:21;;;;;;;0.30;0.30;;;;;;;23.93;nan;95381.06;4935711;28;20204;-71
2022/06/18 05:40:48;;;;;;;0.73;0.57;;;;;;;23.87;nan;95369.75;4981420;28;20219;-71
2022/06/18 05:43:15;;;;;;;0.90;0.90;;;;;;;23.88;nan;95374.03;4951969;28;20232;-71
2022/06/18 05:45:43;;;;;;;0.50;0.50;;;;;;;23.70;nan;95374.47;4985446;28;20221;-69
2022/06/18 05:48:12;;;;;;;0.73;0.50;;;;;;;24.09;nan;95387.41;4970940;28;20667;-74
2022/06/18 05:50:40;;;;;;;0.90;0.90;;;;;;;23.81;nan;95383.69;4957024;28;20211;-73
2022/06/18 05:53:08;;;;;;;0.43;0.40;;;;;;;24.02;nan;95381.78;4967283;28;20934;-70
2022/06/18 05:55:53;;;;;;;3.10;1.60;;;;;;;24.37;nan;95376.91;4958174;28;20237;-72
2022/06/18 05:58:31;;;;;;;0.90;0.83;;;;;;;24.02;nan;95389.81;4970638;28;20209;-73
2022/06/18 06:01:05;;;;;;;0.60;0.60;;;;;;;24.54;nan;95387.47;4953059;28;20231;-71
2022/06/18 06:03:33;;;;;;;0.47;0.47;;;;;;;24.35;nan;95374.56;4951315;28;20235;-71
2022/06/18 06:06:01;;;;;;;1.97;1.27;;;;;;;24.89;nan;95369.91;4939850;28;20683;-72
2022/06/18 06:08:28;;;;;;;0.60;0.53;;;;;;;24.85;nan;95377.81;4970233;28;20204;-71
2022/06/18 06:13:41;;;;;;;0.97;0.70;;;;;;;25.51;nan;95383.78;4971009;28;20199;-72
2022/06/18 06:16:11;;;;;;;0.50;0.50;;;;;;;25.09;nan;95390.47;4953456;28;20271;-75
2022/06/18 06:18:38;;;;;;;4.23;0.70;;;;;;;24.67;nan;95384.47;4963551;28;20203;-71
2022/06/18 06:21:05;;;;;;;0.43;0.43;;;;;;;25.15;nan;95391.03;4954896;28;20685;-71
2022/06/18 06:23:31;;;;;;;0.43;0.43;;;;;;;25.12;nan;95376.41;4962242;28;20206;-72
2022/06/18 06:25:59;;;;;;;0.50;0.50;;;;;;;25.29;nan;95372.72;4963818;28;20257;-73
2022/06/18 06:28:29;;;;;;;1.37;0.93;;;;;;;25.97;nan;95379.75;4964442;28;20561;-71
2022/06/18 06:30:56;;;;;;;0.30;0.30;;;;;;;25.61;nan;95371.81;4956412;28;20230;-72
2022/06/18 06:33:23;;;;;;;0.30;0.30;;;;;;;25.73;nan;95377.16;4967630;28;20202;-72
2022/06/18 06:35:51;;;;;;;0.80;0.80;;;;;;;25.43;nan;95359.75;4966865;28;20207;-72
2022/06/18 06:38:18;;;;;;;0.43;0.43;;;;;;;25.72;nan;95372.91;4962697;28;20737;-72
2022/06/18 06:40:46;;;;;;;0.53;0.53;;;;;;;26.18;nan;95375.03;4961563;28;21890;-73
2022/06/18 06:43:15;;;;;;;0.90;0.90;;;;;;;26.17;nan;95381.50;4962887;28;20196;-72
2022/06/18 06:45:43;;;;;;;0.57;0.57;;;;;;;26.42;nan;95391.03;4961812;28;20208;-71
2022/06/18 06:48:11;;;;;;;0.40;0.40;;;;;;;26.45;nan;95384.97;4964886;28;20203;-71
2022/06/18 06:50:39;;;;;;;1.60;0.50;;;;;;;26.72;nan;95386.09;4967398;28;20212;-73
2022/06/18 06:53:06;;;;;;;0.83;0.83;;;;;;;26.28;nan;95389.84;4964079;28;20272;-74
2022/06/18 06:58:22;;;;;;;0.50;0.50;;;;;;;26.25;nan;95390.56;4962880;28;20232;-74
2022/06/18 07:00:52;;;;;;;0.60;0.43;;;;;;;26.75;nan;95382.72;4961983;28;20207;-75
2022/06/18 07:03:27;;;;;;;0.33;0.33;;;;;;;26.32;nan;95386.16;4966608;28;20235;-71
2022/06/18 07:05:56;;;;;;;1.70;1.07;;;;;;;26.59;nan;95385.34;4964446;28;20285;-72
2022/06/18 07:08:23;;;;;;;1.03;0.97;;;;;;;27.02;nan;95371.88;4967060;28;20203;-75
2022/06/18 07:10:50;;;;;;;0.77;0.77;;;;;;;26.50;nan;95365.91;4966301;28;20230;-75
2022/06/18 07:13:19;;;;;;;0.40;0.40;;;;;;;26.67;nan;95376.34;4968634;28;20195;-73
2022/06/18 07:15:47;;;;;;;0.57;0.50;;;;;;;26.07;nan;95382.00;4966210;28;20203;-72
2022/06/18 07:18:17;;;;;;;1.20;0.77;;;;;;;26.29;nan;95373.41;4962811;28;20215;-73
2022/06/18 07:20:44;;;;;;;0.60;0.60;;;;;;;25.87;nan;95366.81;4966953;28;20205;-72
2022/06/18 07:23:11;;;;;;;0.80;0.80;;;;;;;26.34;nan;95377.75;4964339;28;20585;-71
2022/06/18 07:25:39;;;;;;;2.50;1.10;;;;;;;25.88;nan;95382.59;4960102;28;20682;-72
2022/06/18 07:28:07;;;;;;;0.50;0.50;;;;;;;26.17;nan;95376.13;4964173;28;20187;-72
2022/06/18 07:30:36;;;;;;;0.60;0.60;;;;;;;25.97;nan;95379.75;4957313;28;20196;-71
2022/06/18 07:33:03;;;;;;;0.60;0.60;;;;;;;26.26;nan;95381.38;4957702;28;20226;-73
2022/06/18 07:35:32;;;;;;;0.60;0.60;;;;;;;26.28;nan;95374.53;4958145;28;20195;-74
2022/06/18 07:37:59;;;;;;;1.53;0.93;;;;;;;26.30;nan;95379.56;4961110;28;20212;-73
2022/06/18 07:40:33;;;;;;;2.83;1.63;;;;;;;26.94;nan;95364.78;4962062;28;20195;-72
2022/06/18 07:43:03;;;;;;;1.50;1.27;;;;;;;26.80;nan;95369.81;4965446;28;20202;-74
2022/06/18 07:45:30;;;;;;;0.40;0.40;;;;;;;26.78;nan;95358.63;4950628;28;20946;-72
2022/06/18 07:47:56;;;;;;;1.53;1.43;;;;;;;26.85;nan;95372.22;4961845;28;20195;-71
2022/06/18 07:50:23;;;;;;;0.37;0.37;;;;;;;27.24;nan;95373.19;4962341;28;20627;-71
2022/06/18 07:52:51;;;;;;;1.40;0.77;;;;;;;27.57;nan;95362.03;4964054;28;20221;-69
2022/06/18 07:55:24;;;;;;;0.70;0.70;;;;;;;27.96;nan;95366.34;4963843;28;20748;-73
2022/06/18 07:57:51;;;;;;;3.37;2.63;;;;;;;27.66;nan;95352.59;4960113;28;20211;-71
2022/06/18 08:00:20;;;;;;;2.13;2.03;;;;;;;27.51;nan;95366.13;4961026;28;20734;-73
2022/06/18 08:02:48;;;;;;;0.60;0.60;;;;;;;27.56;nan;95355.06;4965905;28;20203;-75
2022/06/18 08:05:25;;;;;;;1.40;1.30;;;;;;;28.12;nan;95363.63;4966299;28;20598;-74
2022/06/18 08:07:52;;;;;;;1.43;1.33;;;;;;;27.70;nan;95352.72;4964622;28;20239;-71
2022/06/18 08:10:37;;;;;;;0.80;0.80;;;;;;;27.61;nan;95341.38;4967501;28;20245;-73
2022/06/18 08:13:04;;;;;;;0.70;0.60;;;;;;;26.86;nan;95373.78;4962699;28;20250;-73
2022/06/18 08:15:36;;;;;;;1.10;1.00;;;;;;;26.72;nan;95368.06;4958108;28;20199;-75
2022/06/18 08:18:03;;;;;;;0.47;0.47;;;;;;;27.09;nan;95349.75;4962506;28;20250;-74
2022/06/18 08:20:50;;;;;;;0.73;0.73;;;;;;;27.61;nan;95346.75;4966494;28;20245;-74
2022/06/18 08:23:18;;;;;;;0.43;0.43;;;;;;;27.86;nan;95350.75;4971181;28;20195;-76
2022/06/18 08:25:45;;;;;;;0.97;0.93;;;;;;;27.37;nan;95355.03;4954712;28;20332;-75
2022/06/18 08:28:13;;;;;;;0.97;0.80;;;;;;;27.74;nan;95356.25;4958895;28;20192;-74
2022/06/18 08:30:41;;;;;;;1.13;1.03;;;;;;;27.88;nan;95353.88;4947857;28;20562;-75
2022/06/18 08:33:09;;;;;;;0.80;0.50;;;;;;;28.09;nan;95365.09;4941468;28;20203;-73
2022/06/18 08:35:37;;;;;;;1.67;1.57;;;;;;;28.31;nan;95364.38;4971005;28;20277;-76
2022/06/18 08:38:07;;;;;;;3.27;1.43;;;;;;;27.27;nan;95366.31;4954647;28;20651;-79
2022/06/18 08:40:55;;;;;;;0.73;0.73;;;;;;;27.93;nan;95357.09;4954075;28;20266;-77
2022/06/18 08:43:32;;;;;;;0.50;0.50;;;;;;;27.51;nan;95371.50;4953506;28;20196;-74
2022/06/18 08:46:07;;;;;;;0.80;0.70;;;;;;;27.34;nan;95361.13;4960897;28;20198;-73
2022/06/18 08:49:02;;;;;;;0.70;0.70;;;;;;;27.61;nan;95365.59;4959693;28;20617;-73
2022/06/18 08:51:38;;;;;;;0.63;0.63;;;;;;;27.82;nan;95357.97;4972605;28;20199;-74
2022/06/18 08:54:23;;;;;;;1.07;0.73;;;;;;;28.31;nan;95342.81;4958023;28;20199;-70
2022/06/18 08:57:06;;;;;;;0.63;0.63;;;;;;;28.13;nan;95349.00;4963896;28;20198;-72
2022/06/18 08:59:55;;;;;;;2.47;2.27;;;;;;;28.22;nan;95358.41;4959834;28;20207;-71
2022/06/18 09:02:41;;;;;;;2.03;1.83;;;;;;;28.02;nan;95353.38;4943888;29;20675;-74
2022/06/18 09:06:02;;;;;;;2.73;2.17;;;;;;;28.41;nan;95354.94;4952657;28;20227;-73
2022/06/18 09:08:34;;;;;;;1.33;1.20;;;;;;;28.12;nan;95353.59;4960874;28;20188;-74
2022/06/18 09:11:11;;;;;;;28.13;1.40;;;;;;;28.53;nan;95352.88;4953058;28;20675;-71
2022/06/18 09:13:49;;;;;;;4.67;4.23;;;;;;;28.50;nan;95348.16;4951910;28;20338;-75
2022/06/18 09:16:22;;;;;;;3.80;3.20;;;;;;;28.48;nan;95347.75;4952025;28;20207;-71
2022/06/18 09:18:55;;;;;;;3.60;3.30;;;;;;;28.09;nan;95351.63;4952563;28;20380;-74
2022/06/18 09:21:32;;;;;;;2.77;2.10;;;;;;;27.88;nan;95349.22;4967214;28;20864;-70
2022/06/18 09:24:05;;;;;;;6.53;4.80;;;;;;;28.23;nan;95338.41;4952302;29;20302;-73
2022/06/18 09:26:39;;;;;;;1.40;1.30;;;;;;;28.22;nan;95344.94;4948512;28;20209;-69
2022/06/18 09:29:12;;;;;;;1.00;1.00;;;;;;;27.56;nan;95347.00;4955389;28;20309;-76
2022/06/18 09:31:52;;;;;;;1.23;1.13;;;;;;;27.24;nan;95357.03;4953138;28;20192;-77
2022/06/18 09:34:29;;;;;;;0.53;0.53;;;;;;;26.22;nan;95354.44;4950961;28;20199;-70
2022/06/18 09:37:20;;;;;;;0.83;0.83;;;;;;;27.09;nan;95343.59;4953256;28;20651;-69
2022/06/18 09:39:52;;;;;;;0.80;0.60;;;;;;;26.28;nan;95361.09;4952900;28;20196;-72
2022/06/18 09:42:32;;;;;;;0.53;0.53;;;;;;;27.02;nan;95355.72;4950954;28;20203;-71
2022/06/18 09:44:59;;;;;;;0.57;0.57;;;;;;;27.17;nan;95356.09;4950649;28;20832;-71
2022/06/18 09:47:44;;;;;;;3.70;1.43;;;;;;;27.81;nan;95356.38;4957067;28;20218;-72
2022/06/18 09:50:19;;;;;;;0.60;0.47;;;;;;;27.76;nan;95356.66;4962161;28;20253;-76
2022/06/18 09:52:52;;;;;;;0.70;0.70;;;;;;;27.71;nan;95355.03;4966624;28;20206;-74
2022/06/18 09:55:26;;;;;;;0.40;0.40;;;;;;;27.58;nan;95350.13;4961668;28;20699;-73
2022/06/18 09:57:56;;;;;;;0.60;0.60;;;;;;;26.85;nan;95353.41;4936672;28;20366;-74
2022/06/18 10:00:28;;;;;;;3.10;2.83;;;;;;;27.17;nan;95346.09;4957955;28;20214;-74
2022/06/18 10:09:41;;;;;;;1.53;1.43;;;;;;;27.69;nan;95335.78;4952375;28;20263;-72
2022/06/18 10:12:21;;;;;;;2.83;1.10;;;;;;;27.51;nan;95339.22;4946497;28;20208;-72
2022/06/18 10:14:52;;;;;;;0.77;0.77;;;;;;;28.12;nan;95339.34;4948488;28;20206;-72
2022/06/18 10:17:25;;;;;;;1.00;0.90;;;;;;;28.28;nan;95338.16;4951341;28;20594;-71
2022/06/18 10:20:30;;;;;;;0.37;0.37;;;;;;;28.30;nan;95335.88;4951998;28;20302;-71
2022/06/18 10:23:06;;;;;;;1.33;1.23;;;;;;;27.82;nan;95339.09;4939167;28;20283;-69
2022/06/18 10:25:45;;;;;;;0.77;0.77;;;;;;;29.12;nan;95332.69;4952288;28;20204;-68
2022/06/18 10:28:12;;;;;;;2.13;1.30;;;;;;;29.25;nan;95328.66;4950563;28;20202;-70
2022/06/18 10:31:07;;;;;;;1.13;1.07;;;;;;;29.17;nan;95327.00;4951368;28;20737;-67
2022/06/18 10:33:58;;;;;;;1.20;1.00;;;;;;;29.39;nan;95328.88;4945030;28;20222;-68
2022/06/18 10:36:31;;;;;;;2.87;2.40;;;;;;;28.80;nan;95322.16;4953794;28;20642;-69
2022/06/18 10:39:33;;;;;;;1.50;1.40;;;;;;;29.34;nan;95331.88;4950892;28;20736;-69
2022/06/18 10:42:02;;;;;;;0.97;0.83;;;;;;;29.41;nan;95331.97;4951427;28;20265;-72
2022/06/18 10:45:02;;;;;;;2.30;2.10;;;;;;;29.92;nan;95325.78;4953417;28;20244;-68
2022/06/18 10:47:33;;;;;;;1.87;1.70;;;;;;;29.73;nan;95322.41;4938579;28;20586;-68
2022/06/18 10:50:04;;;;;;;14.07;9.30;;;;;;;29.43;nan;95329.69;4949908;28;20227;-69
2022/06/18 10:52:31;;;;;;;10.40;8.07;;;;;;;29.54;nan;95325.22;4951200;28;20204;-62
2022/06/18 10:55:16;;;;;;;2.33;1.57;;;;;;;29.41;nan;95329.28;4963797;28;20203;-69
2022/06/18 10:57:48;;;;;;;10.37;6.40;;;;;;;29.03;nan;95315.97;4946938;28;20235;-72
2022/06/18 11:00:23;;;;;;;5.30;4.60;;;;;;;28.66;nan;95330.00;4950166;28;20250;-68
2022/06/18 11:02:56;;;;;;;7.30;5.03;;;;;;;28.49;nan;95325.03;4951285;29;20690;-69
2022/06/18 11:05:30;;;;;;;1.23;1.10;;;;;;;27.70;nan;95331.16;4954299;28;20270;-67
2022/06/18 11:08:02;;;;;;;2.97;0.67;;;;;;;27.60;nan;95342.47;4951263;28;20690;-67
2022/06/18 11:10:43;;;;;;;0.77;0.70;;;;;;;26.71;nan;95344.22;4950443;28;20227;-69
2022/06/18 11:13:35;;;;;;;0.60;0.60;;;;;;;27.15;nan;95343.00;4951512;28;20191;-66
2022/06/18 11:16:28;;;;;;;1.23;1.07;;;;;;;27.19;nan;95343.81;4954070;28;20728;-68
2022/06/18 11:19:00;;;;;;;0.60;0.60;;;;;;;27.18;nan;95341.50;4955512;28;20318;-66
2022/06/18 11:21:39;;;;;;;1.10;1.00;;;;;;;27.15;nan;95337.63;4950454;28;20204;-67
2022/06/18 11:24:28;;;;;;;1.10;1.00;;;;;;;27.64;nan;95341.44;4952356;28;20195;-66
2022/06/18 11:26:59;;;;;;;1.10;0.77;;;;;;;28.23;nan;95330.31;4950235;28;20747;-67
2022/06/18 11:29:29;;;;;;;4.00;2.77;;;;;;;28.71;nan;95340.50;4950027;28;20309;-64
2022/06/18 11:31:59;;;;;;;7.03;5.73;;;;;;;28.71;nan;95342.41;4950221;29;20714;-65
2022/06/18 11:34:29;;;;;;;3.73;3.43;;;;;;;28.68;nan;95346.63;4949145;28;20200;-67
2022/06/18 11:36:58;;;;;;;1.10;1.07;;;;;;;29.09;nan;95338.81;4946795;28;20342;-68
2022/06/18 11:39:33;;;;;;;1.33;1.23;;;;;;;29.32;nan;95344.97;4947834;28;20354;-66
2022/06/18 11:42:16;;;;;;;0.80;0.80;;;;;;;29.49;nan;95349.84;4947053;28;20683;-66
2022/06/18 11:44:57;;;;;;;0.50;0.47;;;;;;;29.62;nan;95360.06;4961451;28;20250;-65
2022/06/18 11:47:32;;;;;;;0.67;0.67;;;;;;;29.68;nan;95363.22;4962303;28;20271;-67
2022/06/18 11:50:01;;;;;;;1.20;0.90;;;;;;;28.98;nan;95363.69;4959665;28;20746;-67
2022/06/18 11:52:53;;;;;;;1.20;0.70;;;;;;;29.98;nan;95353.25;4952660;28;20906;-67
2022/06/18 11:55:28;;;;;;;2.80;2.60;;;;;;;30.10;nan;95358.41;4952076;28;20211;-69
2022/06/18 11:58:00;;;;;;;0.77;0.73;;;;;;;29.22;nan;95359.06;4959366;28;20757;-67
2022/06/18 12:01:03;;;;;;;2.07;1.87;;;;;;;27.83;nan;95356.81;4925395;28;20200;-69
2022/06/18 12:03:42;;;;;;;0.73;0.60;;;;;;;27.92;nan;95360.06;4941272;28;20235;-65
2022/06/18 12:06:35;;;;;;;2.23;1.50;;;;;;;27.59;nan;95359.78;4937120;28;20355;-64
2022/06/18 12:09:22;;;;;;;4.07;3.67;;;;;;;28.81;nan;95353.38;4934317;28;20204;-68
2022/06/18 12:12:02;;;;;;;1.10;0.90;;;;;;;28.07;nan;95351.19;4935964;28;20276;-69
2022/06/18 12:14:44;;;;;;;0.70;0.70;;;;;;;28.80;nan;95351.81;4923698;28;20192;-68
2022/06/18 12:17:20;;;;;;;1.07;0.77;;;;;;;28.73;nan;95357.09;4957339;28;20250;-68
2022/06/18 12:20:02;;;;;;;0.60;0.60;;;;;;;28.30;nan;95348.56;4944706;28;20216;-68
2022/06/18 12:22:52;;;;;;;0.33;0.33;;;;;;;28.65;nan;95333.81;4949520;28;20435;-68
2022/06/18 12:25:24;;;;;;;0.80;0.77;;;;;;;28.49;nan;95349.31;4951049;28;20207;-66
2022/06/18 12:28:14;;;;;;;0.53;0.53;;;;;;;28.57;nan;95332.16;4955073;28;20210;-68
2022/06/18 12:30:57;;;;;;;1.20;1.10;;;;;;;28.44;nan;95360.38;4938757;28;20628;-68
2022/06/18 12:33:42;;;;;;;0.73;0.73;;;;;;;28.45;nan;95345.75;4948972;28;20644;-70
2022/06/18 12:36:16;;;;;;;1.33;1.17;;;;;;;28.48;nan;95350.47;4950116;28;20200;-71
2022/06/18 12:39:01;;;;;;;0.80;0.80;;;;;;;28.77;nan;95330.97;4957320;28;20215;-66
2022/06/18 12:41:54;;;;;;;0.90;0.50;;;;;;;28.41;nan;95339.53;4949542;28;20209;-69
2022/06/18 12:44:44;;;;;;;0.33;0.33;;;;;;;28.79;nan;95339.47;4932546;28;20207;-68